Rorichmoor — V2BV7 — position and weather

sailwx.info

Track history (hours):
 
Tides and Currents Weather Stations Pressure Air Temp Water Temp Dewpoint Dewpoint Depression Visibility Wind Speed Wind Dir Waves Ship Positions

Rorichmoor

Last reported at 2016-May-28 05:30 UTC. Time now 2016-May-31 07:50 UTC.
Position N 41°37' E 009°56'.

Length 80 m; draft 4.3 m.

Type: Cargo ship. MMSI: 304938000.

Date/timePositionNaut miles runAvg speedWind from/ knotsBaromVisibWave heightAir tempDewpointWater temp
2016-May-28 05:30N 41°37' E 009°56'29 9.3
2016-May-28 02:23N 42°06' E 009°56'8 9.2
2016-May-28 01:34N 42°13' E 009°56'9 9.1
2016-May-28 00:34N 42°22' E 009°56'9 9.1
2016-May-27 23:33N 42°31' E 009°56'9 9.0
2016-May-27 22:33N 42°40' E 009°57'13 8.9
2016-May-27 21:06N 42°53' E 010°01'5 9.4
2016-May-27 20:33N 42°58' E 010°02'9 9.2
2016-May-27 19:34N 43°07' E 010°05'10 9.4
2016-May-27 18:33N 43°16' E 010°07'9 9.4
2016-May-27 17:33N 43°25' E 010°10'8 7.8
2016-May-27 16:32N 43°32' E 010°16'2 2.1
2016-May-27 15:31N 43°33' E 010°18'0 0.0
2016-May-27 14:19N 43°33' E 010°18'0 0.0
2016-May-27 13:31N 43°33' E 010°18'0 0.0
2016-May-27 12:16N 43°33' E 010°18'0 0.0
2016-May-27 11:31N 43°33' E 010°18'0 0.0
2016-May-27 10:31N 43°33' E 010°18'0 0.0
2016-May-27 09:28N 43°33' E 010°18'0 0.0
2016-May-27 08:31N 43°33' E 010°18'0 0.0
2016-May-27 07:25N 43°33' E 010°18'0 0.0
2016-May-27 06:31N 43°33' E 010°18'0 0.0
2016-May-27 05:31N 43°33' E 010°18'0 0.0
2016-May-27 04:31N 43°33' E 010°18'0 0.0
2016-May-27 03:28N 43°33' E 010°18'0 0.0
2016-May-27 02:31N 43°33' E 010°18'0 0.0
2016-May-27 01:31N 43°33' E 010°18'0 0.0
2016-May-27 00:31N 43°33' E 010°18'0 0.0
2016-May-26 23:31N 43°33' E 010°18'0 0.0
2016-May-26 22:28N 43°33' E 010°18'0 0.0
2016-May-26 21:31N 43°33' E 010°18'0 0.0
2016-May-26 20:28N 43°33' E 010°18'0 0.0
2016-May-26 19:31N 43°33' E 010°18'0 0.0
2016-May-26 18:31N 43°33' E 010°18'0 0.0
2016-May-26 17:31N 43°33' E 010°18'0 0.0
2016-May-26 16:22N 43°33' E 010°18'0 0.0
2016-May-26 15:31N 43°33' E 010°18'0 0.0
2016-May-26 13:25N 43°33' E 010°18'0 0.4
2016-May-26 12:32N 43°34' E 010°18'0 0.0
2016-May-26 11:26N 43°34' E 010°18'0 0.0
2016-May-26 10:32N 43°34' E 010°18'0 0.0
2016-May-26 09:32N 43°34' E 010°18'0 0.0
2016-May-26 08:32N 43°34' E 010°18'0 0.0
2016-May-26 07:32N 43°34' E 010°18'0 0.0
2016-May-26 06:32N 43°34' E 010°18'0 0.0
2016-May-26 05:32N 43°34' E 010°18'0 0.0
2016-May-26 04:32N 43°34' E 010°18'0 0.0
2016-May-26 03:29N 43°34' E 010°18'0 0.0
2016-May-26 02:32N 43°34' E 010°18'0 0.0
2016-May-26 01:29N 43°34' E 010°18'0 0.0
2016-May-26 00:32N 43°34' E 010°18'0 0.0
2016-May-25 23:32N 43°34' E 010°18'0 0.0
2016-May-25 22:23N 43°34' E 010°18'0 0.0
2016-May-25 21:32N 43°34' E 010°18'0 0.0
2016-May-25 20:32N 43°34' E 010°18'0 0.0
2016-May-25 19:32N 43°34' E 010°18'0 0.0
2016-May-25 18:29N 43°34' E 010°18'0 0.0
2016-May-25 17:32N 43°34' E 010°18'0 0.0
2016-May-25 16:26N 43°34' E 010°18'0 0.0
2016-May-25 15:32N 43°34' E 010°18'0 0.0
2016-May-25 14:32N 43°34' E 010°18'0 0.0
2016-May-25 13:32N 43°34' E 010°18'0 0.0
2016-May-25 12:26N 43°34' E 010°18'0 0.0
2016-May-25 11:32N 43°34' E 010°18'0 0.0
2016-May-25 10:32N 43°34' E 010°18'0 0.0
2016-May-25 09:32N 43°34' E 010°18'0 0.0
2016-May-25 08:32N 43°34' E 010°18'0 0.0
2016-May-25 07:26N 43°34' E 010°18'0 0.0
2016-May-25 06:32N 43°34' E 010°18'0 0.0
2016-May-25 05:32N 43°34' E 010°18'0 0.0
2016-May-25 04:32N 43°34' E 010°18'0 0.0
2016-May-25 03:29N 43°34' E 010°18'0 0.0
2016-May-25 02:26N 43°34' E 010°18'0 0.0
2016-May-25 01:32N 43°34' E 010°18'5 5.2
2016-May-25 00:33N 43°30' E 010°14'9 8.8
2016-May-24 23:33N 43°24' E 010°05'9 8.8
2016-May-24 22:33N 43°19' E 009°55'10 9.1
2016-May-24 21:28N 43°17' E 009°42'206 8.5
2016-May-23 21:13N 43°17' E 004°59'6 9.0
2016-May-23 20:33N 43°23' E 004°56'6 5.1
2016-May-23 19:26N 43°23' E 004°49'3 0.1
2016-May-21 22:33N 43°24' E 004°53'6 5.4
2016-May-21 21:33N 43°20' E 004°59'87 9.7
2016-May-21 12:33N 42°30' E 006°35'331 8.2
2016-May-19 20:13N 40°41' E 013°34'  
Track history (hours):
 
Tides and Currents Weather Stations Pressure Air Temp Water Temp Dewpoint Dewpoint Depression Visibility Wind Speed Wind Dir Waves Ship Positions

Rorichmoor

Last reported at 2016-May-28 05:30 UTC. Time now 2016-May-31 07:50 UTC.
Position N 41°37' E 009°56'.

Length 80 m; draft 4.3 m.

Type: Cargo ship. MMSI: 304938000.

Date/timePositionNaut miles runAvg speedWind from/ knotsBaromVisibWave heightAir tempDewpointWater temp
2016-May-28 05:30N 41°37' E 009°56'29 9.3
2016-May-28 02:23N 42°06' E 009°56'8 9.2
2016-May-28 01:34N 42°13' E 009°56'9 9.1
2016-May-28 00:34N 42°22' E 009°56'9 9.1
2016-May-27 23:33N 42°31' E 009°56'9 9.0
2016-May-27 22:33N 42°40' E 009°57'13 8.9
2016-May-27 21:06N 42°53' E 010°01'5 9.4
2016-May-27 20:33N 42°58' E 010°02'9 9.2
2016-May-27 19:34N 43°07' E 010°05'10 9.4
2016-May-27 18:33N 43°16' E 010°07'9 9.4
2016-May-27 17:33N 43°25' E 010°10'8 7.8
2016-May-27 16:32N 43°32' E 010°16'2 2.1
2016-May-27 15:31N 43°33' E 010°18'0 0.0
2016-May-27 14:19N 43°33' E 010°18'0 0.0
2016-May-27 13:31N 43°33' E 010°18'0 0.0
2016-May-27 12:16N 43°33' E 010°18'0 0.0
2016-May-27 11:31N 43°33' E 010°18'0 0.0
2016-May-27 10:31N 43°33' E 010°18'0 0.0
2016-May-27 09:28N 43°33' E 010°18'0 0.0
2016-May-27 08:31N 43°33' E 010°18'0 0.0
2016-May-27 07:25N 43°33' E 010°18'0 0.0
2016-May-27 06:31N 43°33' E 010°18'0 0.0
2016-May-27 05:31N 43°33' E 010°18'0 0.0
2016-May-27 04:31N 43°33' E 010°18'0 0.0
2016-May-27 03:28N 43°33' E 010°18'0 0.0
2016-May-27 02:31N 43°33' E 010°18'0 0.0
2016-May-27 01:31N 43°33' E 010°18'0 0.0
2016-May-27 00:31N 43°33' E 010°18'0 0.0
2016-May-26 23:31N 43°33' E 010°18'0 0.0
2016-May-26 22:28N 43°33' E 010°18'0 0.0
2016-May-26 21:31N 43°33' E 010°18'0 0.0
2016-May-26 20:28N 43°33' E 010°18'0 0.0
2016-May-26 19:31N 43°33' E 010°18'0 0.0
2016-May-26 18:31N 43°33' E 010°18'0 0.0
2016-May-26 17:31N 43°33' E 010°18'0 0.0
2016-May-26 16:22N 43°33' E 010°18'0 0.0
2016-May-26 15:31N 43°33' E 010°18'0 0.0
2016-May-26 13:25N 43°33' E 010°18'0 0.4
2016-May-26 12:32N 43°34' E 010°18'0 0.0
2016-May-26 11:26N 43°34' E 010°18'0 0.0
2016-May-26 10:32N 43°34' E 010°18'0 0.0
2016-May-26 09:32N 43°34' E 010°18'0 0.0
2016-May-26 08:32N 43°34' E 010°18'0 0.0
2016-May-26 07:32N 43°34' E 010°18'0 0.0
2016-May-26 06:32N 43°34' E 010°18'0 0.0
2016-May-26 05:32N 43°34' E 010°18'0 0.0
2016-May-26 04:32N 43°34' E 010°18'0 0.0
2016-May-26 03:29N 43°34' E 010°18'0 0.0
2016-May-26 02:32N 43°34' E 010°18'0 0.0
2016-May-26 01:29N 43°34' E 010°18'0 0.0
2016-May-26 00:32N 43°34' E 010°18'0 0.0
2016-May-25 23:32N 43°34' E 010°18'0 0.0
2016-May-25 22:23N 43°34' E 010°18'0 0.0
2016-May-25 21:32N 43°34' E 010°18'0 0.0
2016-May-25 20:32N 43°34' E 010°18'0 0.0
2016-May-25 19:32N 43°34' E 010°18'0 0.0
2016-May-25 18:29N 43°34' E 010°18'0 0.0
2016-May-25 17:32N 43°34' E 010°18'0 0.0
2016-May-25 16:26N 43°34' E 010°18'0 0.0
2016-May-25 15:32N 43°34' E 010°18'0 0.0
2016-May-25 14:32N 43°34' E 010°18'0 0.0
2016-May-25 13:32N 43°34' E 010°18'0 0.0
2016-May-25 12:26N 43°34' E 010°18'0 0.0
2016-May-25 11:32N 43°34' E 010°18'0 0.0
2016-May-25 10:32N 43°34' E 010°18'0 0.0
2016-May-25 09:32N 43°34' E 010°18'0 0.0
2016-May-25 08:32N 43°34' E 010°18'0 0.0
2016-May-25 07:26N 43°34' E 010°18'0 0.0
2016-May-25 06:32N 43°34' E 010°18'0 0.0
2016-May-25 05:32N 43°34' E 010°18'0 0.0
2016-May-25 04:32N 43°34' E 010°18'0 0.0
2016-May-25 03:29N 43°34' E 010°18'0 0.0
2016-May-25 02:26N 43°34' E 010°18'0 0.0
2016-May-25 01:32N 43°34' E 010°18'5 5.2
2016-May-25 00:33N 43°30' E 010°14'9 8.8
2016-May-24 23:33N 43°24' E 010°05'9 8.8
2016-May-24 22:33N 43°19' E 009°55'10 9.1
2016-May-24 21:28N 43°17' E 009°42'206 8.5
2016-May-23 21:13N 43°17' E 004°59'6 9.0
2016-May-23 20:33N 43°23' E 004°56'6 5.1
2016-May-23 19:26N 43°23' E 004°49'3 0.1
2016-May-21 22:33N 43°24' E 004°53'6 5.4
2016-May-21 21:33N 43°20' E 004°59'87 9.7
2016-May-21 12:33N 42°30' E 006°35'331 8.2
2016-May-19 20:13N 40°41' E 013°34'  

Dump ship's entire track history